Time;durP1;ratioP1;P1;durP2;ratioP2;P2;SDS_P1;SDS_P2;PMS_P1;PMS_P2;Temp;Humidity;BMP_temperature;BMP_pressure;BME280_temperature;BME280_humidity;BME280_pressure;Samples;Min_cycle;Max_cycle;Signal;HPM_P1;HPM_P2
2022/01/25 00:10:15;;;;;;;74.68;50.60;;;;;;;3.88;100.00;103391.44;10456679;28;20493;-55
2022/01/25 00:31:10;;;;;;;70.90;47.92;;;;;;;3.96;100.00;103388.91;10456472;28;20049;-54
2022/01/25 00:36:16;;;;;;;80.30;52.27;;;;;;;3.74;100.00;103392.09;10456425;28;20049;-53
2022/01/25 00:41:20;;;;;;;79.88;49.22;;;;;;;3.79;100.00;103396.47;10455270;28;20041;-53
2022/01/25 00:46:23;;;;;;;74.60;51.28;;;;;;;3.72;100.00;103394.66;10456150;28;20045;-55
2022/01/25 00:56:33;;;;;;;76.95;50.13;;;;;;;3.80;100.00;103392.16;10467094;28;20103;-53
2022/01/25 01:01:37;;;;;;;77.45;51.05;;;;;;;3.95;100.00;103381.09;10456018;28;20063;-55
2022/01/25 01:06:43;;;;;;;84.22;52.38;;;;;;;3.62;100.00;103379.84;10455661;28;20057;-57
2022/01/25 01:11:53;;;;;;;82.72;51.47;;;;;;;3.78;100.00;103376.59;10455541;28;20448;-54
2022/01/25 01:17:20;;;;;;;82.40;52.88;;;;;;;3.62;100.00;103370.34;10463181;28;20053;-55
2022/01/25 01:33:36;;;;;;;83.82;53.63;;;;;;;3.69;100.00;103389.44;10462752;28;20053;-56
2022/01/25 01:43:41;;;;;;;90.00;55.30;;;;;;;3.55;100.00;103389.28;10462131;28;20045;-56
2022/01/25 01:48:52;;;;;;;84.68;54.60;;;;;;;3.71;100.00;103387.72;10462632;28;20045;-57
2022/01/25 01:53:57;;;;;;;85.65;57.00;;;;;;;3.51;100.00;103382.28;10462170;28;20060;-55
2022/01/25 01:59:03;;;;;;;84.53;52.03;;;;;;;3.58;100.00;103376.34;10462385;28;20048;-55
2022/01/25 02:04:07;;;;;;;89.20;53.72;;;;;;;3.70;100.00;103376.50;10461962;28;20056;-54
2022/01/25 02:09:10;;;;;;;87.20;54.15;;;;;;;3.84;100.00;103373.22;10461569;28;20049;-53
2022/01/25 02:14:15;;;;;;;86.60;53.60;;;;;;;3.76;100.00;103377.44;10482945;28;20124;-56
2022/01/25 02:24:38;;;;;;;83.95;53.25;;;;;;;3.62;100.00;103366.91;10460942;28;20048;-55
2022/01/25 02:29:41;;;;;;;82.00;51.33;;;;;;;3.83;100.00;103367.19;10460877;28;20052;-55
2022/01/25 02:34:44;;;;;;;88.80;55.25;;;;;;;3.56;100.00;103369.41;10460429;28;20052;-54
2022/01/25 02:39:46;;;;;;;90.78;54.28;;;;;;;3.56;100.00;103372.00;10460345;28;20378;-57
2022/01/25 02:44:48;;;;;;;88.03;53.85;;;;;;;3.51;100.00;103371.94;10460812;28;20057;-53
2022/01/25 02:49:51;;;;;;;84.30;52.65;;;;;;;3.62;100.00;103372.94;10468010;28;20117;-55
2022/01/25 02:54:53;;;;;;;85.70;51.72;;;;;;;3.44;100.00;103357.16;10480301;28;20053;-58
2022/01/25 03:00:00;;;;;;;85.38;54.58;;;;;;;3.54;100.00;103365.06;10459590;28;20049;-56
2022/01/25 03:05:03;;;;;;;86.32;54.70;;;;;;;3.59;100.00;103359.94;10459353;28;20425;-53
2022/01/25 03:10:06;;;;;;;87.13;55.15;;;;;;;3.43;100.00;103351.13;10459019;28;20421;-56
2022/01/25 03:20:23;;;;;;;89.93;52.90;;;;;;;3.55;100.00;103340.03;10458457;28;20401;-56
2022/01/25 03:25:26;;;;;;;86.93;53.78;;;;;;;3.41;100.00;103341.56;10458986;28;20053;-55
2022/01/25 03:30:29;;;;;;;87.78;52.78;;;;;;;3.42;100.00;103333.81;10479474;28;20052;-57
2022/01/25 03:35:31;;;;;;;87.07;52.92;;;;;;;3.41;100.00;103331.22;10457058;28;20132;-56
2022/01/25 03:40:33;;;;;;;88.53;52.30;;;;;;;3.35;100.00;103332.88;10458478;28;20495;-52
2022/01/25 03:45:39;;;;;;;87.82;53.25;;;;;;;3.34;100.00;103338.88;10457916;28;20061;-52
2022/01/25 03:50:44;;;;;;;85.07;53.15;;;;;;;3.53;100.00;103340.03;10458044;28;20055;-55
2022/01/25 03:55:47;;;;;;;86.82;51.92;;;;;;;3.42;100.00;103338.16;10457336;28;20049;-55
2022/01/25 04:00:50;;;;;;;86.97;53.63;;;;;;;3.37;100.00;103339.81;10457229;28;20401;-56
2022/01/25 04:05:53;;;;;;;84.95;52.35;;;;;;;3.51;100.00;103335.66;10458808;28;20524;-51
2022/01/25 04:10:56;;;;;;;80.03;50.85;;;;;;;3.34;100.00;103335.44;10474106;28;20416;-54
2022/01/25 04:16:05;;;;;;;87.75;52.22;;;;;;;3.38;100.00;103333.75;10456883;28;20083;-56
2022/01/25 04:21:25;;;;;;;89.10;52.70;;;;;;;3.37;100.00;103342.41;10456737;28;20049;-55
2022/01/25 04:26:28;;;;;;;76.32;47.85;;;;;;;3.63;100.00;103328.06;10456546;28;20055;-51
2022/01/25 04:31:30;;;;;;;86.90;52.10;;;;;;;3.28;100.00;103333.66;10456696;28;20049;-56
2022/01/25 04:48:55;;;;;;;80.88;50.55;;;;;;;3.43;100.00;103322.63;10455909;28;20053;-54
2022/01/25 04:53:02;;;;;;;82.32;50.88;;;;;;;3.39;100.00;103319.97;10464668;28;20041;-57
2022/01/25 04:58:12;;;;;;;82.40;48.35;;;;;;;3.20;100.00;103327.50;10464493;28;20044;-54
2022/01/25 05:03:21;;;;;;;79.63;48.50;;;;;;;3.41;100.00;103324.31;10464421;28;20049;-55
2022/01/25 05:08:41;;;;;;;76.47;47.30;;;;;;;3.48;100.00;103323.56;10464442;28;20045;-56
2022/01/25 05:24:09;;;;;;;83.45;50.78;;;;;;;3.00;100.00;103334.09;10483733;28;20093;-55
2022/01/25 05:29:11;;;;;;;78.15;47.47;;;;;;;3.11;100.00;103338.59;10463309;28;20056;-56
2022/01/25 05:34:14;;;;;;;86.55;51.63;;;;;;;3.29;100.00;103332.78;10462844;28;20049;-57
2022/01/25 05:39:21;;;;;;;85.43;50.13;;;;;;;3.01;100.00;103341.91;10462886;28;20167;-55
2022/01/25 05:49:49;;;;;;;85.05;52.65;;;;;;;3.01;100.00;103333.25;10461686;28;20049;-54
2022/01/25 05:54:51;;;;;;;88.07;52.35;;;;;;;3.21;100.00;103330.94;10462006;28;20048;-54
2022/01/25 05:59:54;;;;;;;87.00;51.20;;;;;;;3.32;100.00;103319.03;10461676;28;20060;-58
2022/01/25 06:04:56;;;;;;;83.18;51.33;;;;;;;3.34;100.00;103320.75;10483500;28;20049;-55
2022/01/25 06:09:59;;;;;;;84.72;49.95;;;;;;;3.17;100.00;103312.78;10462055;28;20045;-53
2022/01/25 06:15:01;;;;;;;88.50;49.60;;;;;;;3.29;100.00;103313.78;10461462;28;20053;-53
2022/01/25 06:20:05;;;;;;;81.68;49.95;;;;;;;3.11;100.00;103317.88;10461154;28;20056;-57
2022/01/25 06:25:10;;;;;;;86.45;49.20;;;;;;;3.34;100.00;103315.59;10461083;28;20056;-55
2022/01/25 06:30:17;;;;;;;90.55;52.88;;;;;;;3.10;100.00;103318.72;10461192;28;20056;-55
2022/01/25 06:35:20;;;;;;;91.60;52.58;;;;;;;3.14;100.00;103307.56;10459349;28;20049;-56
2022/01/25 06:40:24;;;;;;;88.88;51.28;;;;;;;3.18;100.00;103326.59;10478623;28;20049;-55
2022/01/25 06:45:27;;;;;;;90.40;53.78;;;;;;;3.26;100.00;103329.28;10461832;28;20068;-56
2022/01/25 06:50:29;;;;;;;93.80;54.63;;;;;;;3.20;100.00;103324.03;10460535;28;20049;-55
2022/01/25 06:55:32;;;;;;;92.18;52.22;;;;;;;3.12;100.00;103323.91;10459901;28;20049;-57
2022/01/25 07:00:34;;;;;;;93.50;54.00;;;;;;;3.17;100.00;103324.84;10460036;28;20406;-52
2022/01/25 07:05:37;;;;;;;89.28;52.38;;;;;;;3.10;100.00;103323.03;10459896;28;20071;-57
2022/01/25 07:10:39;;;;;;;92.43;54.10;;;;;;;3.15;100.00;103335.19;10458523;28;20049;-58
2022/01/25 07:15:42;;;;;;;96.05;54.35;;;;;;;3.13;100.00;103338.63;10458601;28;20055;-55
2022/01/25 07:20:44;;;;;;;92.95;52.15;;;;;;;3.02;100.00;103337.59;10459014;28;20041;-54
2022/01/25 07:25:47;;;;;;;87.85;50.00;;;;;;;3.19;100.00;103343.00;10458653;28;20111;-56
2022/01/25 07:30:50;;;;;;;97.75;55.10;;;;;;;3.19;100.00;103345.59;10458555;28;20060;-55
2022/01/25 07:35:57;;;;;;;94.93;55.33;;;;;;;3.13;100.00;103344.66;10456734;28;20420;-55
2022/01/25 07:41:04;;;;;;;93.47;53.25;;;;;;;3.05;100.00;103342.81;10457124;28;20080;-56
2022/01/25 07:46:08;;;;;;;98.78;54.78;;;;;;;3.11;100.00;103337.69;10457130;28;20095;-53
2022/01/25 07:51:12;;;;;;;100.97;53.95;;;;;;;3.12;100.00;103342.91;10457648;28;20055;-55
2022/01/25 07:56:15;;;;;;;97.40;55.15;;;;;;;3.00;100.00;103349.63;10457462;28;20056;-57
2022/01/25 08:01:18;;;;;;;102.28;54.05;;;;;;;3.00;100.00;103362.56;10457244;28;20053;-58
2022/01/25 08:06:21;;;;;;;91.75;51.22;;;;;;;2.90;100.00;103356.38;10455640;28;20485;-55
2022/01/25 08:11:23;;;;;;;88.22;49.55;;;;;;;3.24;99.49;103346.53;10456556;28;20401;-55
2022/01/25 08:16:33;;;;;;;93.47;53.10;;;;;;;3.23;99.67;103349.94;10456590;28;20056;-57
2022/01/25 08:21:43;;;;;;;105.95;54.45;;;;;;;3.31;100.00;103345.75;10455299;28;20457;-55
2022/01/25 08:27:02;;;;;;;103.15;56.45;;;;;;;3.36;100.00;103338.91;10450075;28;20052;-52
2022/01/25 08:32:06;;;;;;;110.68;54.90;;;;;;;3.13;100.00;103352.41;10456489;28;20430;-55
2022/01/25 08:37:14;;;;;;;105.25;55.45;;;;;;;3.41;99.75;103351.94;10466418;28;20040;-52
2022/01/25 08:42:21;;;;;;;103.25;55.17;;;;;;;3.46;100.00;103355.44;10465339;28;20446;-55
2022/01/25 08:47:24;;;;;;;100.43;56.70;;;;;;;3.23;95.46;103363.78;10455948;28;20053;-52
2022/01/25 08:52:37;;;;;;;102.45;55.20;;;;;;;3.32;95.51;103356.13;10456196;28;20049;-54
2022/01/25 08:57:59;;;;;;;98.13;55.00;;;;;;;3.26;97.10;103350.91;10456026;28;20049;-53
2022/01/25 09:03:02;;;;;;;102.07;54.40;;;;;;;3.32;97.71;103353.53;10455789;28;20057;-54
2022/01/25 09:08:06;;;;;;;104.82;56.83;;;;;;;3.16;97.08;103362.81;10455903;28;20049;-51
2022/01/25 09:13:08;;;;;;;96.38;53.80;;;;;;;3.35;97.89;103368.28;10455838;28;20547;-57
2022/01/25 09:18:10;;;;;;;110.28;59.45;;;;;;;3.38;98.38;103381.25;10455819;28;20057;-56
2022/01/25 09:23:16;;;;;;;103.15;55.58;;;;;;;3.39;98.20;103376.94;10455663;28;20049;-53
2022/01/25 09:28:18;;;;;;;101.03;56.17;;;;;;;3.20;95.75;103383.59;10455516;28;20045;-57
2022/01/25 09:33:22;;;;;;;94.95;52.70;;;;;;;3.47;93.63;103377.94;10456679;28;20052;-51
2022/01/25 09:38:25;;;;;;;106.78;54.47;;;;;;;3.43;94.93;103391.66;10462824;28;20045;-54
2022/01/25 09:43:28;;;;;;;98.22;54.08;;;;;;;3.26;94.29;103379.38;10462691;28;20052;-55
2022/01/25 09:48:31;;;;;;;101.68;56.60;;;;;;;3.31;96.41;103382.00;10462837;28;20139;-55
2022/01/25 09:53:33;;;;;;;98.43;52.78;;;;;;;3.44;97.18;103389.09;10462875;28;20052;-55
2022/01/25 09:58:36;;;;;;;102.43;58.08;;;;;;;3.23;95.47;103389.69;10461908;28;20077;-54
2022/01/25 10:03:41;;;;;;;99.97;53.47;;;;;;;3.49;96.55;103395.22;10462501;28;20070;-54
2022/01/25 10:08:44;;;;;;;96.45;53.42;;;;;;;3.71;96.37;103392.91;10461484;28;20056;-56
2022/01/25 10:13:51;;;;;;;92.82;50.65;;;;;;;3.49;96.13;103402.13;10462303;28;20072;-55
2022/01/25 10:18:59;;;;;;;92.75;51.53;;;;;;;3.46;95.13;103402.06;10461117;28;20413;-54
2022/01/25 10:24:08;;;;;;;94.50;53.38;;;;;;;3.34;92.35;103395.88;10461557;28;20041;-55
2022/01/25 10:29:17;;;;;;;92.15;51.83;;;;;;;3.68;92.66;103400.63;10461404;28;20493;-49
2022/01/25 10:34:25;;;;;;;96.13;53.65;;;;;;;3.78;94.21;103394.72;10480564;28;20572;-55
2022/01/25 10:39:32;;;;;;;92.40;52.00;;;;;;;3.65;91.18;103388.53;10459577;28;20044;-56
2022/01/25 10:44:52;;;;;;;92.88;53.55;;;;;;;3.80;92.64;103387.88;10459795;28;20045;-55
2022/01/25 10:49:54;;;;;;;89.10;50.28;;;;;;;3.82;93.66;103398.25;10460529;28;20084;-56
2022/01/25 10:55:05;;;;;;;93.00;54.10;;;;;;;3.90;91.70;103391.41;10460214;28;20140;-56
2022/01/25 11:00:11;;;;;;;94.78;53.55;;;;;;;3.73;94.11;103393.78;10459754;28;20486;-55
2022/01/25 11:05:18;;;;;;;95.97;53.25;;;;;;;3.48;92.04;103396.09;10459485;28;20413;-52
2022/01/25 11:10:21;;;;;;;95.22;52.55;;;;;;;3.77;92.99;103390.41;10464618;28;20033;-54
2022/01/25 11:15:24;;;;;;;94.38;51.67;;;;;;;3.62;92.18;103400.59;10473730;28;20048;-57
2022/01/25 11:20:27;;;;;;;96.13;53.05;;;;;;;3.65;92.14;103408.41;10459365;28;20057;-58
2022/01/25 11:25:30;;;;;;;96.28;53.22;;;;;;;3.87;92.50;103401.78;10457527;28;20053;-54
2022/01/25 11:30:32;;;;;;;91.07;50.15;;;;;;;3.89;92.65;103405.25;10458802;28;20041;-56
2022/01/25 11:35:35;;;;;;;95.03;53.33;;;;;;;3.89;92.93;103406.09;10456782;28;20494;-53
2022/01/25 11:40:46;;;;;;;87.93;52.10;;;;;;;3.86;91.77;103400.88;10457996;28;20049;-57
2022/01/25 11:45:49;;;;;;;94.25;53.85;;;;;;;3.92;93.93;103413.06;10456862;28;20045;-56
2022/01/25 11:50:52;;;;;;;93.13;51.42;;;;;;;3.93;92.46;103394.03;10456267;28;20049;-55
2022/01/25 11:55:55;;;;;;;89.82;49.20;;;;;;;3.75;95.00;103397.31;10456988;28;20444;-56
2022/01/25 12:01:07;;;;;;;88.50;51.33;;;;;;;3.94;94.34;103388.03;10457947;28;20051;-56
2022/01/25 12:06:31;;;;;;;90.07;51.38;;;;;;;3.75;91.29;103376.56;10457475;28;20052;-56
2022/01/25 12:11:37;;;;;;;92.35;51.90;;;;;;;3.43;91.60;103370.94;10457728;28;20051;-53
2022/01/25 12:16:44;;;;;;;90.50;51.60;;;;;;;3.53;92.80;103370.22;10457362;28;20060;-57
2022/01/25 12:21:53;;;;;;;89.85;52.08;;;;;;;3.61;93.20;103358.25;10456921;28;20049;-54
2022/01/25 12:27:07;;;;;;;93.32;50.40;;;;;;;3.75;93.37;103353.25;10456403;28;20452;-55
2022/01/25 12:32:17;;;;;;;94.50;52.63;;;;;;;3.89;92.68;103349.09;10456308;28;20045;-57
2022/01/25 12:37:55;;;;;;;95.70;52.85;;;;;;;3.59;92.72;103348.72;10456407;28;20045;-57
2022/01/25 12:43:08;;;;;;;95.60;51.67;;;;;;;3.62;93.57;103351.34;10444733;28;20049;-54
2022/01/25 12:48:19;;;;;;;94.15;53.15;;;;;;;3.49;90.98;103346.00;10456182;28;20410;-57
2022/01/25 12:53:26;;;;;;;89.95;49.67;;;;;;;3.37;90.54;103334.63;10456826;28;20045;-53
2022/01/25 12:58:30;;;;;;;92.38;50.80;;;;;;;3.52;90.58;103340.00;10455642;28;20049;-57
2022/01/25 13:03:35;;;;;;;92.38;50.40;;;;;;;3.78;91.05;103340.31;10455963;28;20045;-58
2022/01/25 13:09:14;;;;;;;90.05;49.30;;;;;;;3.95;90.79;103340.53;10457285;28;20045;-57
2022/01/25 13:14:32;;;;;;;91.45;51.90;;;;;;;3.63;89.91;103338.44;10464870;28;20052;-56
2022/01/25 13:19:43;;;;;;;92.32;51.72;;;;;;;3.66;90.53;103330.66;10463524;28;20132;-56
2022/01/25 13:35:37;;;;;;;86.72;47.70;;;;;;;3.58;94.00;103319.38;10463261;28;20059;-54
2022/01/25 13:40:55;;;;;;;88.45;50.10;;;;;;;3.79;93.01;103305.78;10462869;28;20124;-55
2022/01/25 13:46:06;;;;;;;91.95;50.42;;;;;;;3.80;91.66;103298.84;10463246;28;20049;-58
2022/01/25 13:51:10;;;;;;;;;;;;;;;3.47;89.70;103298.50;10463094;28;20044;-56
2022/01/25 13:56:14;;;;;;;89.90;50.28;;;;;;;3.77;92.91;103285.91;10462065;28;19920;-53
2022/01/25 14:01:19;;;;;;;88.22;47.78;;;;;;;3.74;92.87;103284.13;10461968;28;20064;-57
2022/01/25 14:06:40;;;;;;;86.07;48.47;;;;;;;3.96;93.25;103292.13;10462480;28;20477;-54
2022/01/25 14:27:18;;;;;;;85.78;47.95;;;;;;;3.50;91.27;103283.00;10461001;28;20405;-52
2022/01/25 14:32:36;;;;;;;84.50;47.65;;;;;;;3.40;89.77;103278.56;10460883;28;20049;-55
2022/01/25 14:37:49;;;;;;;87.85;48.83;;;;;;;3.38;88.44;103261.25;10460818;28;20052;-53
2022/01/25 14:42:52;;;;;;;83.38;47.38;;;;;;;3.35;89.66;103264.69;10460211;28;20123;-54
2022/01/25 14:47:56;;;;;;;86.97;46.10;;;;;;;3.70;93.36;103267.69;10460167;28;20493;-56
2022/01/25 14:53:12;;;;;;;82.95;45.67;;;;;;;3.75;93.45;103264.25;10460387;28;20052;-57
2022/01/25 15:03:18;;;;;;;82.57;46.65;;;;;;;3.70;90.32;103261.63;10476879;28;20029;-54
2022/01/25 15:08:22;;;;;;;87.38;46.05;;;;;;;3.68;90.59;103258.13;10464569;28;20485;-58
2022/01/25 15:13:27;;;;;;;87.22;46.15;;;;;;;3.07;90.19;103261.72;10457982;28;20053;-55
2022/01/25 15:18:36;;;;;;;82.75;44.92;;;;;;;3.67;91.56;103261.59;10459220;28;20473;-56
2022/01/25 15:23:39;;;;;;;84.65;46.97;;;;;;;3.35;93.03;103273.31;10458979;28;20052;-54
2022/01/25 15:28:44;;;;;;;85.03;47.22;;;;;;;3.35;92.42;103275.03;10458662;28;20049;-55
2022/01/25 15:33:49;;;;;;;95.68;48.67;;;;;;;3.40;91.64;103275.97;10458578;28;20048;-53
2022/01/25 15:38:53;;;;;;;85.57;47.65;;;;;;;3.42;90.95;103282.03;10458545;28;20045;-55
2022/01/25 15:43:58;;;;;;;79.60;43.33;;;;;;;3.43;91.28;103283.78;10478865;28;20075;-55
2022/01/25 15:49:04;;;;;;;75.18;43.20;;;;;;;3.47;92.06;103284.69;10457624;28;20408;-55
2022/01/25 15:54:07;;;;;;;82.10;46.15;;;;;;;3.36;92.96;103279.34;10457929;28;20055;-55
2022/01/25 15:59:09;;;;;;;79.20;42.78;;;;;;;3.23;93.00;103272.28;10457687;28;20063;-55
2022/01/25 16:04:24;;;;;;;87.82;46.67;;;;;;;3.18;93.73;103272.25;10456442;28;20055;-51
2022/01/25 16:09:28;;;;;;;86.28;45.80;;;;;;;3.10;94.16;103263.50;10456917;28;20531;-56
2022/01/25 16:14:30;;;;;;;85.93;46.45;;;;;;;3.16;94.93;103268.75;10457235;28;20053;-55
2022/01/25 16:19:33;;;;;;;87.78;46.20;;;;;;;3.33;94.12;103277.59;10456685;28;20501;-54
2022/01/25 16:24:36;;;;;;;85.90;47.83;;;;;;;3.28;92.30;103276.69;10478121;28;20404;-57
2022/01/25 16:29:38;;;;;;;90.40;47.53;;;;;;;3.13;94.80;103285.13;10456714;28;20053;-55
2022/01/25 16:34:40;;;;;;;84.85;44.80;;;;;;;3.21;93.12;103287.81;10455521;28;20045;-55
2022/01/25 16:39:43;;;;;;;82.78;45.63;;;;;;;3.27;94.28;103289.59;10456413;28;20398;-57
2022/01/25 16:44:45;;;;;;;82.55;45.88;;;;;;;3.17;95.41;103280.84;10461757;28;20045;-54
2022/01/25 16:49:50;;;;;;;82.65;45.88;;;;;;;3.00;95.44;103278.03;10463971;28;20045;-54
2022/01/25 16:54:52;;;;;;;87.95;46.28;;;;;;;3.07;96.48;103268.63;10465661;28;20049;-54
2022/01/25 17:00:17;;;;;;;88.70;47.67;;;;;;;3.10;97.42;103269.53;10474186;28;20045;-54
2022/01/25 17:05:19;;;;;;;90.00;45.60;;;;;;;3.29;96.46;103269.78;10472212;28;20083;-54
2022/01/25 17:10:23;;;;;;;84.80;45.70;;;;;;;2.96;94.13;103271.94;10464714;28;20053;-52
2022/01/25 17:15:25;;;;;;;87.63;47.17;;;;;;;3.14;94.86;103270.44;10462621;28;20511;-54
2022/01/25 17:20:28;;;;;;;83.75;44.47;;;;;;;3.21;91.76;103280.06;10464326;28;20057;-55
2022/01/25 17:25:31;;;;;;;89.40;47.28;;;;;;;3.02;91.30;103271.16;10464039;28;20060;-55
2022/01/25 17:30:33;;;;;;;95.25;47.38;;;;;;;3.05;92.65;103272.91;10463815;28;20045;-56
2022/01/25 17:35:36;;;;;;;84.22;45.05;;;;;;;3.28;92.71;103279.28;10463227;28;20049;-56
2022/01/25 17:40:40;;;;;;;87.95;46.45;;;;;;;2.95;94.16;103272.78;10485880;28;20139;-54
2022/01/25 17:45:47;;;;;;;85.30;44.10;;;;;;;2.97;94.65;103273.66;10461827;28;20049;-55
2022/01/25 17:50:49;;;;;;;88.53;47.22;;;;;;;2.94;94.16;103263.28;10462488;28;20079;-53
2022/01/25 17:55:52;;;;;;;91.20;46.42;;;;;;;3.12;93.55;103264.38;10460349;28;20056;-51
2022/01/25 18:00:54;;;;;;;89.18;46.88;;;;;;;3.17;94.28;103254.97;10462539;28;20041;-53
2022/01/25 18:05:57;;;;;;;96.50;49.65;;;;;;;2.81;94.93;103253.63;10461817;28;20493;-56
2022/01/25 18:11:00;;;;;;;88.47;45.38;;;;;;;2.71;95.23;103257.78;10460707;28;20055;-52
2022/01/25 18:16:04;;;;;;;93.85;49.67;;;;;;;3.00;94.52;103243.53;10461541;28;20045;-57
2022/01/25 18:21:10;;;;;;;87.43;46.92;;;;;;;3.00;93.12;103249.56;10483561;28;20051;-56
2022/01/25 18:31:17;;;;;;;93.72;49.22;;;;;;;2.75;94.56;103264.72;10462895;28;20053;-55
2022/01/25 18:36:20;;;;;;;89.28;47.58;;;;;;;2.75;94.45;103269.03;10460941;28;20077;-55
2022/01/25 18:41:22;;;;;;;93.88;47.35;;;;;;;2.96;94.27;103266.78;10460219;28;20053;-51
2022/01/25 18:46:24;;;;;;;88.47;46.80;;;;;;;3.03;93.47;103272.91;10460414;28;20057;-55
2022/01/25 18:51:28;;;;;;;95.03;47.97;;;;;;;3.02;94.24;103273.72;10459770;28;20060;-56
2022/01/25 18:56:31;;;;;;;82.70;43.75;;;;;;;2.62;94.59;103269.69;10459991;28;20060;-53
2022/01/25 19:01:36;;;;;;;93.00;46.92;;;;;;;2.94;95.75;103275.34;10460239;28;20075;-54
2022/01/25 19:06:39;;;;;;;90.80;47.35;;;;;;;2.89;95.82;103283.06;10458390;28;20504;-54
2022/01/25 19:11:44;;;;;;;89.88;46.78;;;;;;;2.91;97.02;103273.59;10459333;28;20079;-56
2022/01/25 19:16:47;;;;;;;88.43;44.67;;;;;;;2.86;95.11;103280.44;10458765;28;20461;-54
2022/01/25 19:21:51;;;;;;;88.63;44.63;;;;;;;2.59;95.56;103286.06;10459007;28;20045;-54
2022/01/25 19:26:57;;;;;;;90.25;46.67;;;;;;;2.55;95.90;103279.06;10457254;28;20481;-56
2022/01/25 19:31:59;;;;;;;85.40;42.55;;;;;;;2.93;95.63;103283.97;10458902;28;20041;-57
2022/01/25 19:37:06;;;;;;;90.15;44.90;;;;;;;2.91;93.78;103280.50;10458301;28;20056;-55
2022/01/25 19:42:11;;;;;;;90.35;44.70;;;;;;;2.65;94.27;103278.38;10458310;28;20378;-54
2022/01/25 19:47:13;;;;;;;96.90;47.53;;;;;;;2.76;95.95;103278.56;10457985;28;20067;-53
2022/01/25 19:52:19;;;;;;;91.03;45.60;;;;;;;2.93;95.38;103282.25;10457575;28;20057;-54
2022/01/25 19:57:26;;;;;;;95.38;45.80;;;;;;;2.90;94.58;103274.44;10457390;28;20041;-56
2022/01/25 20:02:29;;;;;;;99.38;48.67;;;;;;;2.69;96.41;103276.69;10457179;28;20182;-53
2022/01/25 20:07:32;;;;;;;90.60;46.15;;;;;;;2.90;96.85;103277.03;10457092;28;20049;-55
2022/01/25 20:12:34;;;;;;;95.60;47.35;;;;;;;2.71;98.26;103280.19;10457177;28;20049;-56
2022/01/25 20:17:42;;;;;;;90.38;45.22;;;;;;;2.71;97.99;103280.19;10457218;28;20136;-55
2022/01/25 20:23:23;;;;;;;95.40;46.80;;;;;;;3.01;98.26;103281.47;10457464;28;20040;-55
2022/01/25 20:28:28;;;;;;;101.75;51.17;;;;;;;2.76;96.97;103275.97;10456416;28;20049;-52
2022/01/25 20:33:34;;;;;;;91.18;47.42;;;;;;;2.55;96.36;103268.72;10456879;28;20041;-57
2022/01/25 20:38:36;;;;;;;104.78;51.78;;;;;;;2.80;96.43;103277.75;10456708;28;20041;-53
2022/01/25 20:43:39;;;;;;;99.95;47.45;;;;;;;2.74;97.79;103275.94;10456958;28;20055;-57
2022/01/25 20:48:41;;;;;;;99.97;46.95;;;;;;;2.88;96.50;103270.97;10454959;28;20493;-56
2022/01/25 20:53:43;;;;;;;91.38;45.00;;;;;;;2.91;97.13;103260.66;10455121;28;20060;-55
2022/01/25 20:58:50;;;;;;;93.88;47.22;;;;;;;2.80;96.47;103267.38;10455477;28;20488;-54
2022/01/25 21:09:13;;;;;;;99.85;46.88;;;;;;;2.54;97.01;103272.16;10455786;28;20405;-51
2022/01/25 21:14:16;;;;;;;101.00;48.20;;;;;;;2.85;97.28;103273.50;10456098;28;20049;-55
2022/01/25 21:19:18;;;;;;;101.93;50.20;;;;;;;2.39;95.23;103258.16;10455799;28;20508;-52
2022/01/25 21:24:22;;;;;;;94.65;45.95;;;;;;;2.82;93.22;103254.47;10455698;28;20051;-55
2022/01/25 21:29:25;;;;;;;113.53;53.03;;;;;;;2.69;92.41;103251.72;10456522;28;20056;-55
2022/01/25 21:34:27;;;;;;;104.45;49.78;;;;;;;2.56;92.64;103261.00;10467550;28;20053;-56
2022/01/25 21:39:30;;;;;;;102.22;48.33;;;;;;;2.62;94.44;103274.88;10462996;28;20052;-55
2022/01/25 21:44:32;;;;;;;105.35;47.63;;;;;;;2.97;94.49;103260.72;10462332;28;20045;-54
2022/01/25 21:49:35;;;;;;;103.15;47.88;;;;;;;2.42;93.24;103268.53;10462500;28;20075;-53
2022/01/25 21:54:37;;;;;;;103.10;48.40;;;;;;;2.35;93.48;103266.69;10462792;28;20052;-55
2022/01/25 21:59:40;;;;;;;100.13;49.30;;;;;;;2.59;92.95;103270.53;10462676;28;20060;-56
2022/01/25 22:04:47;;;;;;;101.25;48.35;;;;;;;2.57;92.88;103261.84;10462223;28;20049;-52
2022/01/25 22:09:50;;;;;;;108.05;51.10;;;;;;;2.56;93.44;103252.38;10462163;28;20049;-57
2022/01/25 22:14:52;;;;;;;101.00;48.15;;;;;;;2.69;94.14;103238.78;10461259;28;20482;-53
2022/01/25 22:19:55;;;;;;;98.93;46.90;;;;;;;2.83;94.48;103238.13;10462024;28;20067;-56
2022/01/25 22:24:57;;;;;;;100.57;49.90;;;;;;;2.60;94.99;103238.63;10461600;28;20057;-57
2022/01/25 22:29:59;;;;;;;111.55;51.42;;;;;;;2.52;94.55;103242.81;10459988;28;20048;-56
2022/01/25 22:35:02;;;;;;;111.72;52.83;;;;;;;2.43;93.89;103253.91;10461462;28;20072;-54
2022/01/25 22:40:05;;;;;;;111.40;53.00;;;;;;;2.31;95.47;103254.56;10460315;28;20055;-52
2022/01/25 22:45:10;;;;;;;105.70;50.28;;;;;;;2.41;95.77;103269.38;10460647;28;20056;-54
2022/01/25 22:50:16;;;;;;;106.97;47.88;;;;;;;2.50;95.26;103266.06;10460587;28;20059;-56
2022/01/25 22:55:18;;;;;;;104.78;52.03;;;;;;;2.55;94.62;103263.56;10459220;28;20051;-54
2022/01/25 23:00:32;;;;;;;117.47;55.22;;;;;;;2.61;94.48;103258.50;10459546;28;20049;-55
2022/01/25 23:05:40;;;;;;;119.47;53.78;;;;;;;2.66;93.89;103263.75;10459677;28;20053;-56
2022/01/25 23:10:43;;;;;;;110.78;53.28;;;;;;;2.48;93.17;103253.97;10459478;28;20060;-52
2022/01/25 23:15:46;;;;;;;122.53;54.60;;;;;;;2.39;93.74;103254.69;10459301;28;20049;-56
2022/01/25 23:20:52;;;;;;;101.38;49.17;;;;;;;2.36;92.98;103258.09;10457953;28;20045;-51
2022/01/25 23:25:55;;;;;;;117.30;53.90;;;;;;;2.32;93.90;103263.19;10459004;28;20052;-55
2022/01/25 23:36:10;;;;;;;113.22;51.97;;;;;;;2.41;95.25;103276.28;10458957;28;20049;-51
2022/01/25 23:41:25;;;;;;;111.03;52.63;;;;;;;2.41;96.11;103289.22;10458761;28;20106;-52
2022/01/25 23:46:37;;;;;;;115.07;53.70;;;;;;;2.36;93.76;103283.94;10458228;28;20048;-56
